sensor_id;sensor_type;location;lat;lon;timestamp;pressure;altitude;pressure_sealevel;temperature
37452;BMP280;23314;51.114;6.900;2023-02-28T00:01:17;102652.97;;;1.08
37452;BMP280;23314;51.114;6.900;2023-02-28T00:03:42;102662.19;;;1.05
37452;BMP280;23314;51.114;6.900;2023-02-28T00:06:08;102655.91;;;1.01
37452;BMP280;23314;51.114;6.900;2023-02-28T00:08:35;102652.28;;;0.97
37452;BMP280;23314;51.114;6.900;2023-02-28T00:11:05;102650.81;;;0.91
37452;BMP280;23314;51.114;6.900;2023-02-28T00:13:30;102650.31;;;0.89
37452;BMP280;23314;51.114;6.900;2023-02-28T00:16:04;102652.97;;;0.84
37452;BMP280;23314;51.114;6.900;2023-02-28T00:18:30;102650.66;;;0.82
37452;BMP280;23314;51.114;6.900;2023-02-28T00:20:57;102648.56;;;0.79
37452;BMP280;23314;51.114;6.900;2023-02-28T00:23:22;102647.81;;;0.73
37452;BMP280;23314;51.114;6.900;2023-02-28T00:25:47;102650.75;;;0.72
37452;BMP280;23314;51.114;6.900;2023-02-28T00:28:13;102648.97;;;0.67
37452;BMP280;23314;51.114;6.900;2023-02-28T00:30:38;102650.84;;;0.62
37452;BMP280;23314;51.114;6.900;2023-02-28T00:33:03;102650.94;;;0.56
37452;BMP280;23314;51.114;6.900;2023-02-28T00:35:29;102654.88;;;0.54
37452;BMP280;23314;51.114;6.900;2023-02-28T00:37:54;102653.09;;;0.49
37452;BMP280;23314;51.114;6.900;2023-02-28T00:40:20;102654.72;;;0.45
37452;BMP280;23314;51.114;6.900;2023-02-28T00:42:45;102659.44;;;0.43
37452;BMP280;23314;51.114;6.900;2023-02-28T00:45:10;102650.81;;;0.42
37452;BMP280;23314;51.114;6.900;2023-02-28T00:47:35;102645.03;;;0.40
37452;BMP280;23314;51.114;6.900;2023-02-28T00:50:01;102648.19;;;0.42
37452;BMP280;23314;51.114;6.900;2023-02-28T00:52:27;102650.81;;;0.42
37452;BMP280;23314;51.114;6.900;2023-02-28T00:54:52;102651.03;;;0.46
37452;BMP280;23314;51.114;6.900;2023-02-28T00:57:18;102652.28;;;0.49
37452;BMP280;23314;51.114;6.900;2023-02-28T00:59:43;102650.25;;;0.45
37452;BMP280;23314;51.114;6.900;2023-02-28T01:02:08;102650.00;;;0.42
37452;BMP280;23314;51.114;6.900;2023-02-28T01:04:34;102655.25;;;0.42
37452;BMP280;23314;51.114;6.900;2023-02-28T01:06:59;102653.97;;;0.39
37452;BMP280;23314;51.114;6.900;2023-02-28T01:09:24;102656.38;;;0.36
37452;BMP280;23314;51.114;6.900;2023-02-28T01:11:50;102654.81;;;0.35
37452;BMP280;23314;51.114;6.900;2023-02-28T01:14:16;102652.69;;;0.37
37452;BMP280;23314;51.114;6.900;2023-02-28T01:16:42;102655.31;;;0.37
37452;BMP280;23314;51.114;6.900;2023-02-28T01:19:08;102652.41;;;0.38
37452;BMP280;23314;51.114;6.900;2023-02-28T01:21:33;102652.41;;;0.38
37452;BMP280;23314;51.114;6.900;2023-02-28T01:24:00;102653.25;;;0.34
37452;BMP280;23314;51.114;6.900;2023-02-28T01:26:26;102650.91;;;0.32
37452;BMP280;23314;51.114;6.900;2023-02-28T01:28:52;102647.28;;;0.28
37452;BMP280;23314;51.114;6.900;2023-02-28T01:31:18;102655.69;;;0.25
37452;BMP280;23314;51.114;6.900;2023-02-28T01:33:44;102655.69;;;0.25
37452;BMP280;23314;51.114;6.900;2023-02-28T01:36:12;102655.22;;;0.23
37452;BMP280;23314;51.114;6.900;2023-02-28T01:38:38;102650.75;;;0.23
37452;BMP280;23314;51.114;6.900;2023-02-28T01:41:04;102649.19;;;0.22
37452;BMP280;23314;51.114;6.900;2023-02-28T01:43:32;102652.34;;;0.19
37452;BMP280;23314;51.114;6.900;2023-02-28T01:45:58;102645.03;;;0.16
37452;BMP280;23314;51.114;6.900;2023-02-28T01:48:31;102639.25;;;0.14
37452;BMP280;23314;51.114;6.900;2023-02-28T01:51:00;102641.88;;;0.14
37452;BMP280;23314;51.114;6.900;2023-02-28T01:53:39;102635.06;;;0.13
37452;BMP280;23314;51.114;6.900;2023-02-28T01:56:09;102646.38;;;0.13
37452;BMP280;23314;51.114;6.900;2023-02-28T01:58:36;102645.09;;;0.11
37452;BMP280;23314;51.114;6.900;2023-02-28T02:01:08;102640.09;;;0.09
37452;BMP280;23314;51.114;6.900;2023-02-28T02:03:35;102644.59;;;0.09
37452;BMP280;23314;51.114;6.900;2023-02-28T02:06:01;102644.28;;;0.10
37452;BMP280;23314;51.114;6.900;2023-02-28T02:08:28;102641.97;;;0.09
37452;BMP280;23314;51.114;6.900;2023-02-28T02:10:59;102632.50;;;0.08
37452;BMP280;23314;51.114;6.900;2023-02-28T02:14:06;102625.19;;;0.05
37452;BMP280;23314;51.114;6.900;2023-02-28T02:16:46;102625.78;;;-0.04
37452;BMP280;23314;51.114;6.900;2023-02-28T02:19:40;102619.00;;;-0.10
37452;BMP280;23314;51.114;6.900;2023-02-28T02:22:21;102615.63;;;-0.16
37452;BMP280;23314;51.114;6.900;2023-02-28T02:30:19;102618.38;;;-0.26
37452;BMP280;23314;51.114;6.900;2023-02-28T02:38:34;102621.78;;;-0.36
37452;BMP280;23314;51.114;6.900;2023-02-28T02:41:20;102611.59;;;-0.37
37452;BMP280;23314;51.114;6.900;2023-02-28T02:44:07;102620.00;;;-0.40
37452;BMP280;23314;51.114;6.900;2023-02-28T02:46:43;102614.53;;;-0.44
37452;BMP280;23314;51.114;6.900;2023-02-28T02:49:13;102611.91;;;-0.44
37452;BMP280;23314;51.114;6.900;2023-02-28T02:51:41;102611.38;;;-0.46
37452;BMP280;23314;51.114;6.900;2023-02-28T02:54:11;102605.34;;;-0.47
37452;BMP280;23314;51.114;6.900;2023-02-28T02:56:41;102605.63;;;-0.48
37452;BMP280;23314;51.114;6.900;2023-02-28T02:59:11;102597.53;;;-0.52
37452;BMP280;23314;51.114;6.900;2023-02-28T03:01:39;102607.75;;;-0.55
37452;BMP280;23314;51.114;6.900;2023-02-28T03:04:09;102612.25;;;-0.56
37452;BMP280;23314;51.114;6.900;2023-02-28T03:06:35;102604.38;;;-0.56
37452;BMP280;23314;51.114;6.900;2023-02-28T03:09:02;102613.00;;;-0.55
37452;BMP280;23314;51.114;6.900;2023-02-28T03:11:28;102613.28;;;-0.57
37452;BMP280;23314;51.114;6.900;2023-02-28T03:19:34;102611.44;;;-0.56
37452;BMP280;23314;51.114;6.900;2023-02-28T03:22:14;102612.75;;;-0.54
37452;BMP280;23314;51.114;6.900;2023-02-28T03:25:13;102608.06;;;-0.57
37452;BMP280;23314;51.114;6.900;2023-02-28T03:32:58;102605.44;;;-0.62
37452;BMP280;23314;51.114;6.900;2023-02-28T03:35:35;102602.31;;;-0.64
37452;BMP280;23314;51.114;6.900;2023-02-28T03:41:05;102600.78;;;-0.70
37452;BMP280;23314;51.114;6.900;2023-02-28T03:43:34;102597.66;;;-0.72
37452;BMP280;23314;51.114;6.900;2023-02-28T03:46:04;102600.81;;;-0.76
37452;BMP280;23314;51.114;6.900;2023-02-28T03:48:39;102603.97;;;-0.79
37452;BMP280;23314;51.114;6.900;2023-02-28T03:51:07;102595.63;;;-0.81
37452;BMP280;23314;51.114;6.900;2023-02-28T03:53:42;102602.44;;;-0.85
37452;BMP280;23314;51.114;6.900;2023-02-28T03:56:21;102605.34;;;-0.86
37452;BMP280;23314;51.114;6.900;2023-02-28T03:58:57;102604.81;;;-0.88
37452;BMP280;23314;51.114;6.900;2023-02-28T04:01:27;102606.66;;;-0.89
37452;BMP280;23314;51.114;6.900;2023-02-28T04:03:55;102605.09;;;-0.90
37452;BMP280;23314;51.114;6.900;2023-02-28T04:06:22;102611.13;;;-0.89
37452;BMP280;23314;51.114;6.900;2023-02-28T04:08:48;102612.69;;;-0.88
37452;BMP280;23314;51.114;6.900;2023-02-28T04:11:18;102607.19;;;-0.92
37452;BMP280;23314;51.114;6.900;2023-02-28T04:13:44;102610.84;;;-0.93
37452;BMP280;23314;51.114;6.900;2023-02-28T04:16:10;102614.53;;;-0.94
37452;BMP280;23314;51.114;6.900;2023-02-28T04:18:40;102620.34;;;-0.97
37452;BMP280;23314;51.114;6.900;2023-02-28T04:21:06;102616.91;;;-0.98
37452;BMP280;23314;51.114;6.900;2023-02-28T04:23:32;102615.63;;;-1.00
37452;BMP280;23314;51.114;6.900;2023-02-28T04:25:57;102618.50;;;-1.02
37452;BMP280;23314;51.114;6.900;2023-02-28T04:28:23;102613.78;;;-1.05
37452;BMP280;23314;51.114;6.900;2023-02-28T04:31:00;102620.09;;;-1.06
37452;BMP280;23314;51.114;6.900;2023-02-28T04:33:26;102615.13;;;-1.08
37452;BMP280;23314;51.114;6.900;2023-02-28T04:36:02;102614.34;;;-1.08
37452;BMP280;23314;51.114;6.900;2023-02-28T04:38:29;102624.03;;;-1.09
37452;BMP280;23314;51.114;6.900;2023-02-28T04:40:57;102627.47;;;-1.13
37452;BMP280;23314;51.114;6.900;2023-02-28T04:43:22;102626.66;;;-1.14
37452;BMP280;23314;51.114;6.900;2023-02-28T04:45:48;102622.47;;;-1.10
37452;BMP280;23314;51.114;6.900;2023-02-28T04:48:13;102632.94;;;-1.10
37452;BMP280;23314;51.114;6.900;2023-02-28T04:50:38;102626.41;;;-1.12
37452;BMP280;23314;51.114;6.900;2023-02-28T04:53:03;102632.94;;;-1.10
37452;BMP280;23314;51.114;6.900;2023-02-28T04:55:29;102637.38;;;-1.05
37452;BMP280;23314;51.114;6.900;2023-02-28T04:57:54;102627.69;;;-1.04
37452;BMP280;23314;51.114;6.900;2023-02-28T05:00:20;102629.50;;;-1.05
37452;BMP280;23314;51.114;6.900;2023-02-28T05:02:45;102627.41;;;-1.03
37452;BMP280;23314;51.114;6.900;2023-02-28T05:05:10;102628.97;;;-1.02
37452;BMP280;23314;51.114;6.900;2023-02-28T05:07:41;102636.59;;;-1.00
37452;BMP280;23314;51.114;6.900;2023-02-28T05:10:07;102631.88;;;-0.98
37452;BMP280;23314;51.114;6.900;2023-02-28T05:12:32;102633.16;;;-0.96
37452;BMP280;23314;51.114;6.900;2023-02-28T05:14:58;102629.19;;;-0.93
37452;BMP280;23314;51.114;6.900;2023-02-28T05:17:23;102624.47;;;-0.91
37452;BMP280;23314;51.114;6.900;2023-02-28T05:19:48;102632.63;;;-0.93
37452;BMP280;23314;51.114;6.900;2023-02-28T05:22:15;102633.91;;;-0.95
37452;BMP280;23314;51.114;6.900;2023-02-28T05:24:42;102636.06;;;-0.97
37452;BMP280;23314;51.114;6.900;2023-02-28T05:27:07;102641.81;;;-1.00
37452;BMP280;23314;51.114;6.900;2023-02-28T05:29:33;102641.84;;;-1.06
37452;BMP280;23314;51.114;6.900;2023-02-28T05:31:59;102632.72;;;-1.13
37452;BMP280;23314;51.114;6.900;2023-02-28T05:34:24;102627.72;;;-1.20
37452;BMP280;23314;51.114;6.900;2023-02-28T05:36:49;102637.44;;;-1.26
37452;BMP280;23314;51.114;6.900;2023-02-28T05:39:15;102635.34;;;-1.29
37452;BMP280;23314;51.114;6.900;2023-02-28T05:41:41;102637.22;;;-1.29
37452;BMP280;23314;51.114;6.900;2023-02-28T05:44:07;102631.72;;;-1.33
37452;BMP280;23314;51.114;6.900;2023-02-28T05:46:32;102637.22;;;-1.34
37452;BMP280;23314;51.114;6.900;2023-02-28T05:48:57;102632.47;;;-1.38
37452;BMP280;23314;51.114;6.900;2023-02-28T05:51:25;102646.38;;;-1.37
37452;BMP280;23314;51.114;6.900;2023-02-28T05:53:50;102640.34;;;-1.32
37452;BMP280;23314;51.114;6.900;2023-02-28T05:56:16;102639.56;;;-1.28
37452;BMP280;23314;51.114;6.900;2023-02-28T05:58:41;102646.34;;;-1.22
37452;BMP280;23314;51.114;6.900;2023-02-28T06:01:36;102639.78;;;-1.19
37452;BMP280;23314;51.114;6.900;2023-02-28T06:04:03;102647.63;;;-1.14
37452;BMP280;23314;51.114;6.900;2023-02-28T06:06:29;102645.50;;;-1.07
37452;BMP280;23314;51.114;6.900;2023-02-28T06:08:55;102644.69;;;-1.02
37452;BMP280;23314;51.114;6.900;2023-02-28T06:11:21;102642.84;;;-0.96
37452;BMP280;23314;51.114;6.900;2023-02-28T06:13:47;102656.44;;;-0.94
37452;BMP280;23314;51.114;6.900;2023-02-28T06:16:12;102655.16;;;-0.92
37452;BMP280;23314;51.114;6.900;2023-02-28T06:18:38;102656.94;;;-0.87
37452;BMP280;23314;51.114;6.900;2023-02-28T06:21:03;102650.25;;;-0.58
37452;BMP280;23314;51.114;6.900;2023-02-28T06:23:29;102662.19;;;-0.32
37452;BMP280;23314;51.114;6.900;2023-02-28T06:25:54;102660.34;;;-0.31
37452;BMP280;23314;51.114;6.900;2023-02-28T06:28:23;102667.38;;;-0.21
37452;BMP280;23314;51.114;6.900;2023-02-28T06:30:49;102670.50;;;-0.19
37452;BMP280;23314;51.114;6.900;2023-02-28T06:33:14;102670.06;;;-0.32
37452;BMP280;23314;51.114;6.900;2023-02-28T06:35:43;102675.44;;;-0.12
37452;BMP280;23314;51.114;6.900;2023-02-28T06:38:09;102685.34;;;-0.04
37452;BMP280;23314;51.114;6.900;2023-02-28T06:40:34;102679.09;;;-0.08
37452;BMP280;23314;51.114;6.900;2023-02-28T06:43:00;102686.66;;;-0.07
37452;BMP280;23314;51.114;6.900;2023-02-28T06:45:26;102685.06;;;-0.03
37452;BMP280;23314;51.114;6.900;2023-02-28T06:47:51;102684.41;;;0.16
37452;BMP280;23314;51.114;6.900;2023-02-28T06:50:17;102688.88;;;0.40
37452;BMP280;23314;51.114;6.900;2023-02-28T06:52:44;102695.69;;;0.41
37452;BMP280;23314;51.114;6.900;2023-02-28T06:55:10;102702.19;;;0.49
37452;BMP280;23314;51.114;6.900;2023-02-28T06:57:35;102696.38;;;0.52
37452;BMP280;23314;51.114;6.900;2023-02-28T07:00:05;102696.63;;;0.55
37452;BMP280;23314;51.114;6.900;2023-02-28T07:02:33;102705.06;;;0.77
37452;BMP280;23314;51.114;6.900;2023-02-28T07:04:58;102704.13;;;0.92
37452;BMP280;23314;51.114;6.900;2023-02-28T07:07:24;102704.97;;;0.87
37452;BMP280;23314;51.114;6.900;2023-02-28T07:09:49;102708.22;;;0.79
37452;BMP280;23314;51.114;6.900;2023-02-28T07:12:14;102703.81;;;0.74
37452;BMP280;23314;51.114;6.900;2023-02-28T07:14:39;102703.81;;;0.74
37452;BMP280;23314;51.114;6.900;2023-02-28T07:17:07;102710.31;;;0.77
37452;BMP280;23314;51.114;6.900;2023-02-28T07:19:32;102710.31;;;0.77
37452;BMP280;23314;51.114;6.900;2023-02-28T07:21:58;102711.34;;;0.81
37452;BMP280;23314;51.114;6.900;2023-02-28T07:24:23;102713.63;;;0.87
37452;BMP280;23314;51.114;6.900;2023-02-28T07:26:51;102714.66;;;0.92
37452;BMP280;23314;51.114;6.900;2023-02-28T07:29:16;102711.41;;;1.00
37452;BMP280;23314;51.114;6.900;2023-02-28T07:31:41;102712.13;;;1.05
37452;BMP280;23314;51.114;6.900;2023-02-28T07:34:07;102718.09;;;1.11
37452;BMP280;23314;51.114;6.900;2023-02-28T07:36:32;102720.91;;;1.20
37452;BMP280;23314;51.114;6.900;2023-02-28T07:38:58;102720.28;;;1.28
37452;BMP280;23314;51.114;6.900;2023-02-28T07:41:23;102719.63;;;1.36
37452;BMP280;23314;51.114;6.900;2023-02-28T07:43:56;102721.34;;;1.46
37452;BMP280;23314;51.114;6.900;2023-02-28T07:46:24;102724.91;;;1.56
37452;BMP280;23314;51.114;6.900;2023-02-28T07:48:50;102721.91;;;1.62
37452;BMP280;23314;51.114;6.900;2023-02-28T07:51:15;102727.31;;;1.71
37452;BMP280;23314;51.114;6.900;2023-02-28T07:53:41;102721.41;;;1.79
37452;BMP280;23314;51.114;6.900;2023-02-28T07:56:06;102721.06;;;1.86
37452;BMP280;23314;51.114;6.900;2023-02-28T07:58:32;102721.91;;;1.95
37452;BMP280;23314;51.114;6.900;2023-02-28T08:01:04;102729.97;;;2.04
37452;BMP280;23314;51.114;6.900;2023-02-28T08:03:30;102727.47;;;2.13
37452;BMP280;23314;51.114;6.900;2023-02-28T08:05:55;102731.00;;;2.22
37452;BMP280;23314;51.114;6.900;2023-02-28T08:08:21;102727.97;;;2.29
37452;BMP280;23314;51.114;6.900;2023-02-28T08:10:46;102728.09;;;2.38
37452;BMP280;23314;51.114;6.900;2023-02-28T08:13:11;102742.94;;;2.48
37452;BMP280;23314;51.114;6.900;2023-02-28T08:15:37;102732.78;;;2.55
37452;BMP280;23314;51.114;6.900;2023-02-28T08:18:02;102735.84;;;2.62
37452;BMP280;23314;51.114;6.900;2023-02-28T08:20:27;102728.00;;;2.71
37452;BMP280;23314;51.114;6.900;2023-02-28T08:22:53;102727.44;;;2.88
37452;BMP280;23314;51.114;6.900;2023-02-28T08:25:19;102738.34;;;3.09
37452;BMP280;23314;51.114;6.900;2023-02-28T08:27:44;102726.91;;;3.14
37452;BMP280;23314;51.114;6.900;2023-02-28T08:30:11;102732.66;;;3.16
37452;BMP280;23314;51.114;6.900;2023-02-28T08:32:38;102739.19;;;3.18
37452;BMP280;23314;51.114;6.900;2023-02-28T08:35:04;102727.78;;;3.23
37452;BMP280;23314;51.114;6.900;2023-02-28T08:37:30;102732.94;;;3.28
37452;BMP280;23314;51.114;6.900;2023-02-28T08:39:55;102730.66;;;3.35
37452;BMP280;23314;51.114;6.900;2023-02-28T08:42:20;102736.66;;;3.50
37452;BMP280;23314;51.114;6.900;2023-02-28T08:44:45;102729.38;;;3.70
37452;BMP280;23314;51.114;6.900;2023-02-28T08:47:11;102740.69;;;3.70
37452;BMP280;23314;51.114;6.900;2023-02-28T08:49:36;102735.81;;;3.77
37452;BMP280;23314;51.114;6.900;2023-02-28T08:52:02;102737.63;;;4.00
37452;BMP280;23314;51.114;6.900;2023-02-28T08:54:28;102738.03;;;4.16
37452;BMP280;23314;51.114;6.900;2023-02-28T08:56:55;102735.09;;;4.17
37452;BMP280;23314;51.114;6.900;2023-02-28T08:59:21;102730.72;;;4.44
37452;BMP280;23314;51.114;6.900;2023-02-28T09:01:46;102741.91;;;4.50
37452;BMP280;23314;51.114;6.900;2023-02-28T09:04:11;102737.28;;;4.64
37452;BMP280;23314;51.114;6.900;2023-02-28T09:06:37;102734.81;;;4.85
37452;BMP280;23314;51.114;6.900;2023-02-28T09:09:03;102736.41;;;5.13
37452;BMP280;23314;51.114;6.900;2023-02-28T09:11:31;102737.50;;;5.12
37452;BMP280;23314;51.114;6.900;2023-02-28T09:13:57;102734.84;;;5.20
37452;BMP280;23314;51.114;6.900;2023-02-28T09:16:24;102729.56;;;5.47
37452;BMP280;23314;51.114;6.900;2023-02-28T09:18:49;102725.66;;;5.44
37452;BMP280;23314;51.114;6.900;2023-02-28T09:21:17;102724.13;;;5.52
37452;BMP280;23314;51.114;6.900;2023-02-28T09:23:45;102708.84;;;5.49
37452;BMP280;23314;51.114;6.900;2023-02-28T09:26:25;102707.44;;;5.51
37452;BMP280;23314;51.114;6.900;2023-02-28T09:28:51;102718.66;;;5.40
37452;BMP280;23314;51.114;6.900;2023-02-28T09:31:20;102718.81;;;5.34
37452;BMP280;23314;51.114;6.900;2023-02-28T09:33:53;102727.53;;;5.44
37452;BMP280;23314;51.114;6.900;2023-02-28T09:36:19;102720.22;;;5.49
37452;BMP280;23314;51.114;6.900;2023-02-28T09:38:45;102714.63;;;5.51
37452;BMP280;23314;51.114;6.900;2023-02-28T09:41:17;102713.34;;;5.40
37452;BMP280;23314;51.114;6.900;2023-02-28T09:43:47;102717.13;;;5.30
37452;BMP280;23314;51.114;6.900;2023-02-28T09:46:43;102717.44;;;5.28
37452;BMP280;23314;51.114;6.900;2023-02-28T09:49:11;102724.13;;;5.26
37452;BMP280;23314;51.114;6.900;2023-02-28T09:54:22;102715.41;;;5.34
37452;BMP280;23314;51.114;6.900;2023-02-28T09:57:06;102716.31;;;5.47
37452;BMP280;23314;51.114;6.900;2023-02-28T10:03:06;102720.50;;;5.65
37452;BMP280;23314;51.114;6.900;2023-02-28T10:05:15;102717.97;;;5.69
37452;BMP280;23314;51.114;6.900;2023-02-28T10:08:15;102718.63;;;5.66
37452;BMP280;23314;51.114;6.900;2023-02-28T10:10:51;102718.44;;;5.71
37452;BMP280;23314;51.114;6.900;2023-02-28T10:13:33;102720.31;;;5.71
37452;BMP280;23314;51.114;6.900;2023-02-28T10:19:38;102721.66;;;5.94
37452;BMP280;23314;51.114;6.900;2023-02-28T10:22:14;102709.13;;;6.04
37452;BMP280;23314;51.114;6.900;2023-02-28T10:24:44;102714.19;;;6.26
37452;BMP280;23314;51.114;6.900;2023-02-28T10:27:21;102721.97;;;6.32
37452;BMP280;23314;51.114;6.900;2023-02-28T10:29:49;102707.59;;;6.11
37452;BMP280;23314;51.114;6.900;2023-02-28T10:32:20;102719.66;;;5.91
37452;BMP280;23314;51.114;6.900;2023-02-28T10:34:55;102715.09;;;5.92
37452;BMP280;23314;51.114;6.900;2023-02-28T10:37:21;102704.38;;;5.88
37452;BMP280;23314;51.114;6.900;2023-02-28T10:39:47;102713.72;;;5.86
37452;BMP280;23314;51.114;6.900;2023-02-28T10:42:20;102699.25;;;5.83
37452;BMP280;23314;51.114;6.900;2023-02-28T10:44:46;102700.63;;;5.89
37452;BMP280;23314;51.114;6.900;2023-02-28T10:47:16;102692.34;;;5.99
37452;BMP280;23314;51.114;6.900;2023-02-28T10:49:49;102698.88;;;6.02
37452;BMP280;23314;51.114;6.900;2023-02-28T10:52:33;102691.44;;;5.95
37452;BMP280;23314;51.114;6.900;2023-02-28T10:55:15;102687.06;;;5.91
37452;BMP280;23314;51.114;6.900;2023-02-28T10:57:41;102684.41;;;5.91
37452;BMP280;23314;51.114;6.900;2023-02-28T11:00:15;102687.56;;;5.84
37452;BMP280;23314;51.114;6.900;2023-02-28T11:02:41;102681.03;;;5.81
37452;BMP280;23314;51.114;6.900;2023-02-28T11:05:29;102684.78;;;5.80
37452;BMP280;23314;51.114;6.900;2023-02-28T11:08:06;102674.66;;;5.82
37452;BMP280;23314;51.114;6.900;2023-02-28T11:10:32;102683.97;;;5.89
37452;BMP280;23314;51.114;6.900;2023-02-28T11:13:00;102667.41;;;6.01
37452;BMP280;23314;51.114;6.900;2023-02-28T11:15:28;102676.88;;;6.10
37452;BMP280;23314;51.114;6.900;2023-02-28T11:20:24;102672.59;;;6.18
37452;BMP280;23314;51.114;6.900;2023-02-28T11:22:50;102671.59;;;6.32
37452;BMP280;23314;51.114;6.900;2023-02-28T11:25:22;102674.53;;;6.39
37452;BMP280;23314;51.114;6.900;2023-02-28T11:27:54;102672.38;;;6.32
37452;BMP280;23314;51.114;6.900;2023-02-28T11:32:49;102675.16;;;6.36
37452;BMP280;23314;51.114;6.900;2023-02-28T11:35:23;102671.28;;;6.33
37452;BMP280;23314;51.114;6.900;2023-02-28T11:37:50;102669.97;;;6.18
37452;BMP280;23314;51.114;6.900;2023-02-28T11:40:19;102688.59;;;6.01
37452;BMP280;23314;51.114;6.900;2023-02-28T11:43:08;102689.72;;;5.91
37452;BMP280;23314;51.114;6.900;2023-02-28T11:45:51;102683.03;;;5.93
37452;BMP280;23314;51.114;6.900;2023-02-28T11:48:32;102666.44;;;6.05
37452;BMP280;23314;51.114;6.900;2023-02-28T11:53:50;102673.31;;;6.06
37452;BMP280;23314;51.114;6.900;2023-02-28T11:56:25;102672.84;;;6.04
37452;BMP280;23314;51.114;6.900;2023-02-28T12:04:52;102665.03;;;6.38
37452;BMP280;23314;51.114;6.900;2023-02-28T12:10:15;102666.00;;;6.54
37452;BMP280;23314;51.114;6.900;2023-02-28T12:15:59;102662.13;;;6.52
37452;BMP280;23314;51.114;6.900;2023-02-28T12:26:41;102661.78;;;6.53
37452;BMP280;23314;51.114;6.900;2023-02-28T12:31:49;102637.34;;;6.69
37452;BMP280;23314;51.114;6.900;2023-02-28T12:34:20;102624.84;;;6.69
37452;BMP280;23314;51.114;6.900;2023-02-28T12:36:47;102626.66;;;6.77
37452;BMP280;23314;51.114;6.900;2023-02-28T12:39:20;102627.22;;;6.83
37452;BMP280;23314;51.114;6.900;2023-02-28T12:44:32;102616.44;;;7.01
37452;BMP280;23314;51.114;6.900;2023-02-28T12:47:01;102619.69;;;7.06
37452;BMP280;23314;51.114;6.900;2023-02-28T12:49:31;102614.59;;;7.14
37452;BMP280;23314;51.114;6.900;2023-02-28T12:51:59;102600.22;;;7.15
37452;BMP280;23314;51.114;6.900;2023-02-28T12:54:32;102594.41;;;7.21
37452;BMP280;23314;51.114;6.900;2023-02-28T12:57:09;102587.63;;;7.24
37452;BMP280;23314;51.114;6.900;2023-02-28T12:59:49;102585.69;;;7.33
37452;BMP280;23314;51.114;6.900;2023-02-28T13:11:41;102576.47;;;7.55
37452;BMP280;23314;51.114;6.900;2023-02-28T13:14:22;102568.72;;;7.63
37452;BMP280;23314;51.114;6.900;2023-02-28T13:19:30;102561.97;;;7.65
37452;BMP280;23314;51.114;6.900;2023-02-28T13:21:58;102559.66;;;7.64
37452;BMP280;23314;51.114;6.900;2023-02-28T13:24:43;102562.97;;;7.61
37452;BMP280;23314;51.114;6.900;2023-02-28T13:29:41;102560.22;;;7.57
37452;BMP280;23314;51.114;6.900;2023-02-28T13:39:58;102556.34;;;7.67
37452;BMP280;23314;51.114;6.900;2023-02-28T13:42:38;102557.19;;;7.71
37452;BMP280;23314;51.114;6.900;2023-02-28T13:47:41;102555.31;;;7.71
37452;BMP280;23314;51.114;6.900;2023-02-28T13:50:23;102547.00;;;7.73
37452;BMP280;23314;51.114;6.900;2023-02-28T14:01:17;102545.56;;;7.76
37452;BMP280;23314;51.114;6.900;2023-02-28T14:04:12;102536.72;;;7.71
37452;BMP280;23314;51.114;6.900;2023-02-28T14:06:52;102534.16;;;7.75
37452;BMP280;23314;51.114;6.900;2023-02-28T14:09:28;102525.88;;;7.77
37452;BMP280;23314;51.114;6.900;2023-02-28T14:11:56;102523.31;;;7.80
37452;BMP280;23314;51.114;6.900;2023-02-28T14:17:07;102518.50;;;7.86
37452;BMP280;23314;51.114;6.900;2023-02-28T14:19:37;102518.66;;;7.90
37452;BMP280;23314;51.114;6.900;2023-02-28T14:30:37;102510.41;;;7.95
37452;BMP280;23314;51.114;6.900;2023-02-28T14:33:18;102517.19;;;7.92
37452;BMP280;23314;51.114;6.900;2023-02-28T14:38:55;102531.59;;;7.91
37452;BMP280;23314;51.114;6.900;2023-02-28T14:41:29;102527.06;;;7.92
37452;BMP280;23314;51.114;6.900;2023-02-28T14:43:59;102519.75;;;7.88
37452;BMP280;23314;51.114;6.900;2023-02-28T14:46:40;102517.63;;;7.94
37452;BMP280;23314;51.114;6.900;2023-02-28T14:49:11;102518.50;;;7.98
37452;BMP280;23314;51.114;6.900;2023-02-28T14:51:37;102516.59;;;7.99
37452;BMP280;23314;51.114;6.900;2023-02-28T14:54:03;102512.06;;;7.99
37452;BMP280;23314;51.114;6.900;2023-02-28T14:56:37;102508.06;;;8.06
37452;BMP280;23314;51.114;6.900;2023-02-28T14:59:04;102517.25;;;8.08
37452;BMP280;23314;51.114;6.900;2023-02-28T15:01:29;102502.41;;;8.07
37452;BMP280;23314;51.114;6.900;2023-02-28T15:04:05;102507.88;;;7.98
37452;BMP280;23314;51.114;6.900;2023-02-28T15:06:32;102508.09;;;7.93
37452;BMP280;23314;51.114;6.900;2023-02-28T15:09:17;102507.13;;;7.85
37452;BMP280;23314;51.114;6.900;2023-02-28T15:11:48;102510.22;;;7.87
37452;BMP280;23314;51.114;6.900;2023-02-28T15:14:25;102510.31;;;7.91
37452;BMP280;23314;51.114;6.900;2023-02-28T15:16:57;102502.34;;;7.91
37452;BMP280;23314;51.114;6.900;2023-02-28T15:19:39;102493.63;;;7.91
37452;BMP280;23314;51.114;6.900;2023-02-28T15:22:20;102511.78;;;7.88
37452;BMP280;23314;51.114;6.900;2023-02-28T15:24:50;102503.38;;;7.86
37452;BMP280;23314;51.114;6.900;2023-02-28T15:27:27;102499.59;;;7.87
37452;BMP280;23314;51.114;6.900;2023-02-28T15:29:57;102503.69;;;7.85
37452;BMP280;23314;51.114;6.900;2023-02-28T15:34:57;102495.53;;;7.78
37452;BMP280;23314;51.114;6.900;2023-02-28T15:39:55;102488.53;;;7.73
37452;BMP280;23314;51.114;6.900;2023-02-28T15:42:23;102493.41;;;7.71
37452;BMP280;23314;51.114;6.900;2023-02-28T15:44:52;102492.31;;;7.72
37452;BMP280;23314;51.114;6.900;2023-02-28T15:47:20;102488.03;;;7.67
37452;BMP280;23314;51.114;6.900;2023-02-28T15:49:52;102499.22;;;7.61
37452;BMP280;23314;51.114;6.900;2023-02-28T15:52:21;102491.56;;;7.59
37452;BMP280;23314;51.114;6.900;2023-02-28T15:54:48;102497.25;;;7.58
37452;BMP280;23314;51.114;6.900;2023-02-28T15:57:18;102493.03;;;7.56
37452;BMP280;23314;51.114;6.900;2023-02-28T15:59:51;102496.03;;;7.55
37452;BMP280;23314;51.114;6.900;2023-02-28T16:02:32;102492.34;;;7.47
37452;BMP280;23314;51.114;6.900;2023-02-28T16:07:28;102494.94;;;7.31
37452;BMP280;23314;51.114;6.900;2023-02-28T16:09:54;102497.38;;;7.24
37452;BMP280;23314;51.114;6.900;2023-02-28T16:12:20;102497.59;;;7.19
37452;BMP280;23314;51.114;6.900;2023-02-28T16:14:49;102498.91;;;7.13
37452;BMP280;23314;51.114;6.900;2023-02-28T16:17:20;102503.69;;;7.07
37452;BMP280;23314;51.114;6.900;2023-02-28T16:19:46;102509.84;;;6.99